Time;durP1;ratioP1;P1;durP2;ratioP2;P2;SDS_P1;SDS_P2;PMS_P1;PMS_P2;Temp;Humidity;BMP_temperature;BMP_pressure;BME280_temperature;BME280_humidity;BME280_pressure;Samples;Min_cycle;Max_cycle;Signal;HPM_P1;HPM_P2
2022/11/04 00:01:26;;;;;;;3.33;3.00;;;;;;;9.18;100.00;100045.81;4957539;28;20483;-63
2022/11/04 00:03:52;;;;;;;2.88;2.67;;;;;;;9.16;100.00;100047.50;4970814;28;21013;-64
2022/11/04 00:06:18;;;;;;;4.15;2.90;;;;;;;9.14;100.00;100044.88;4957490;28;20038;-64
2022/11/04 00:08:48;;;;;;;3.50;2.50;;;;;;;9.12;100.00;100042.25;4970644;28;20031;-63
2022/11/04 00:13:57;;;;;;;2.08;1.88;;;;;;;9.11;100.00;100050.84;4971352;28;20525;-63
2022/11/04 00:19:06;;;;;;;1.60;1.50;;;;;;;8.89;100.00;100060.63;4976965;28;20093;-63
2022/11/04 00:29:43;;;;;;;5.95;5.38;;;;;;;8.67;100.00;100068.66;4970988;28;20387;-63
2022/11/04 00:34:53;;;;;;;11.10;10.07;;;;;;;8.68;100.00;100060.94;4958912;28;20047;-64
2022/11/04 00:37:18;;;;;;;10.90;9.90;;;;;;;8.72;100.00;100062.78;4972270;28;20022;-63
2022/11/04 00:39:44;;;;;;;10.85;9.85;;;;;;;8.75;100.00;100072.28;4982657;28;20037;-64
2022/11/04 00:42:09;;;;;;;11.32;10.10;;;;;;;8.73;100.00;100069.69;4989225;28;20053;-63
2022/11/04 00:44:34;;;;;;;11.55;9.98;;;;;;;8.74;100.00;100066.25;4981825;28;20074;-63
2022/11/04 00:47:00;;;;;;;10.75;9.75;;;;;;;8.72;100.00;100069.63;4983023;28;20025;-63
2022/11/04 00:49:25;;;;;;;12.07;9.82;;;;;;;8.69;100.00;100077.31;4970106;28;20026;-64
2022/11/04 00:51:50;;;;;;;11.75;10.50;;;;;;;8.64;100.00;100075.47;4969896;28;20043;-63
2022/11/04 00:54:16;;;;;;;11.27;10.18;;;;;;;8.64;100.00;100085.81;4960226;28;20451;-63
2022/11/04 00:56:41;;;;;;;11.25;10.13;;;;;;;8.64;100.00;100085.81;4971924;28;20026;-64
2022/11/04 00:59:07;;;;;;;11.07;9.98;;;;;;;8.63;100.00;100086.63;4968424;28;20065;-63
2022/11/04 01:01:32;;;;;;;11.68;10.48;;;;;;;8.67;100.00;100094.47;4958404;28;20050;-63
2022/11/04 01:03:58;;;;;;;11.73;10.55;;;;;;;8.66;100.00;100093.59;4970032;28;20026;-63
2022/11/04 01:06:25;;;;;;;11.05;10.10;;;;;;;8.65;100.00;100097.88;4965399;28;20034;-64
2022/11/04 01:09:03;;;;;;;11.13;10.02;;;;;;;8.61;100.00;100096.06;4970469;28;20022;-63
2022/11/04 01:11:30;;;;;;;12.73;9.88;;;;;;;8.61;100.00;100101.22;4957674;28;20026;-64
2022/11/04 01:13:56;;;;;;;12.63;10.80;;;;;;;8.53;100.00;100094.91;4957981;28;20082;-64
2022/11/04 01:16:22;;;;;;;12.30;10.68;;;;;;;8.55;100.00;100100.13;4968408;28;20018;-63
2022/11/04 01:18:47;;;;;;;12.43;11.07;;;;;;;8.53;100.00;100100.97;4960630;28;20040;-63
2022/11/04 01:21:14;;;;;;;11.93;10.70;;;;;;;8.51;100.00;100104.31;4964835;28;20022;-63
2022/11/04 01:23:41;;;;;;;11.32;10.23;;;;;;;8.48;100.00;100114.56;4969445;28;20435;-64
2022/11/04 01:26:09;;;;;;;11.68;10.43;;;;;;;8.41;100.00;100109.25;4956657;28;20041;-63
2022/11/04 01:28:35;;;;;;;18.00;11.00;;;;;;;8.39;100.00;100116.06;4966958;28;20038;-63
2022/11/04 01:31:12;;;;;;;13.43;11.55;;;;;;;8.36;100.00;100121.13;4978371;28;20360;-63
2022/11/04 01:33:38;;;;;;;12.20;10.75;;;;;;;8.36;100.00;100115.09;4988229;28;20450;-64
2022/11/04 01:36:05;;;;;;;13.10;10.90;;;;;;;8.37;100.00;100111.66;4970403;28;20137;-63
2022/11/04 01:38:31;;;;;;;14.35;10.90;;;;;;;8.40;100.00;100111.78;4962907;28;20494;-64
2022/11/04 01:40:57;;;;;;;13.32;11.90;;;;;;;8.38;100.00;100103.97;4967960;28;20031;-64
2022/11/04 01:43:42;;;;;;;15.75;11.23;;;;;;;8.38;100.00;100108.28;4969377;28;20036;-63
2022/11/04 01:46:12;;;;;;;12.93;10.48;;;;;;;8.36;100.00;100115.97;4969680;28;20046;-64
2022/11/04 01:48:38;;;;;;;13.63;9.23;;;;;;;8.36;100.00;100108.22;4970463;28;20371;-64
2022/11/04 01:51:04;;;;;;;12.18;9.43;;;;;;;8.37;100.00;100102.22;4971951;28;20045;-64
2022/11/04 01:53:33;;;;;;;11.55;7.65;;;;;;;8.35;100.00;100113.31;4970479;28;20041;-64
2022/11/04 01:56:04;;;;;;;8.48;7.10;;;;;;;8.31;100.00;100109.78;4967021;28;20026;-63
2022/11/04 01:58:33;;;;;;;10.02;7.47;;;;;;;8.32;100.00;100106.38;4961793;28;20065;-64
2022/11/04 02:01:00;;;;;;;8.98;7.47;;;;;;;8.28;100.00;100108.00;4969777;28;20030;-63
2022/11/04 02:03:30;;;;;;;8.50;6.70;;;;;;;8.24;100.00;100120.78;4962618;28;20039;-63
2022/11/04 02:05:56;;;;;;;11.65;7.30;;;;;;;8.23;100.00;100106.97;4963119;28;20040;-64
2022/11/04 02:08:22;;;;;;;8.38;6.53;;;;;;;8.21;100.00;100120.66;4956392;28;20026;-63
2022/11/04 02:10:53;;;;;;;8.90;6.78;;;;;;;8.16;100.00;100124.00;4965966;28;20086;-64
2022/11/04 02:13:18;;;;;;;9.82;6.55;;;;;;;8.07;100.00;100118.53;4978455;28;20022;-63
2022/11/04 02:16:11;;;;;;;9.38;6.18;;;;;;;8.05;100.00;100123.66;4968804;28;20497;-63
2022/11/04 02:19:03;;;;;;;7.82;5.78;;;;;;;8.04;100.00;100119.31;4955073;28;20050;-63
2022/11/04 02:21:50;;;;;;;7.72;5.10;;;;;;;8.00;100.00;100117.50;4982035;28;20101;-64
2022/11/04 02:24:40;;;;;;;8.38;5.53;;;;;;;7.99;100.00;100125.16;4962936;28;20039;-64
2022/11/04 02:27:20;;;;;;;9.07;4.68;;;;;;;7.97;100.00;100126.84;4960086;28;20423;-64
2022/11/04 02:29:59;;;;;;;8.88;5.32;;;;;;;7.97;100.00;100137.16;4988165;28;20048;-63
2022/11/04 02:32:52;;;;;;;9.00;4.28;;;;;;;7.93;100.00;100137.03;4973599;28;20039;-63
2022/11/04 02:35:39;;;;;;;6.35;3.78;;;;;;;7.89;100.00;100140.38;4965820;28;20033;-63
2022/11/04 02:38:32;;;;;;;5.28;3.60;;;;;;;7.87;100.00;100139.44;4968273;28;20050;-64
2022/11/04 02:41:34;;;;;;;4.55;3.63;;;;;;;7.85;100.00;100135.03;4970088;28;20273;-63
2022/11/04 02:44:18;;;;;;;6.80;3.45;;;;;;;7.83;100.00;100139.28;4971775;28;20109;-64
2022/11/04 02:47:22;;;;;;;7.75;3.30;;;;;;;7.75;100.00;100131.31;4964281;28;20066;-63
2022/11/04 02:49:57;;;;;;;8.23;2.90;;;;;;;7.69;100.00;100134.56;4973289;28;20545;-63
2022/11/04 02:52:32;;;;;;;6.63;3.15;;;;;;;7.69;100.00;100137.13;4983756;28;20030;-63
2022/11/04 02:55:03;;;;;;;4.57;2.58;;;;;;;7.65;100.00;100136.16;4974111;28;20033;-63
2022/11/04 02:57:34;;;;;;;5.97;2.58;;;;;;;7.63;100.00;100132.66;4983876;28;20026;-64
2022/11/04 03:00:05;;;;;;;4.82;2.47;;;;;;;7.60;100.00;100142.00;4986486;28;20073;-63
2022/11/04 03:02:42;;;;;;;5.97;2.47;;;;;;;7.60;100.00;100136.84;4960151;28;20167;-64
2022/11/04 03:05:18;;;;;;;6.00;2.17;;;;;;;7.56;100.00;100129.00;4984321;28;20028;-63
2022/11/04 03:07:47;;;;;;;7.20;2.88;;;;;;;7.55;100.00;100140.16;4968149;28;20057;-64
2022/11/04 03:10:21;;;;;;;7.20;2.55;;;;;;;7.52;100.00;100134.03;4983518;28;20030;-63
2022/11/04 03:12:53;;;;;;;6.38;2.10;;;;;;;7.50;100.00;100151.13;4982047;28;20483;-63
2022/11/04 03:15:25;;;;;;;6.28;2.45;;;;;;;7.47;100.00;100139.00;4971614;28;20023;-63
2022/11/04 03:18:22;;;;;;;6.40;2.33;;;;;;;7.45;100.00;100151.84;4982391;28;20431;-63
2022/11/04 03:20:48;;;;;;;6.82;2.50;;;;;;;7.43;100.00;100160.34;4968915;28;20061;-63
2022/11/04 03:23:14;;;;;;;3.97;1.90;;;;;;;7.39;100.00;100154.22;4970791;28;20604;-63
2022/11/04 03:25:43;;;;;;;5.07;2.30;;;;;;;7.33;100.00;100160.03;4963933;28;20110;-63
2022/11/04 03:28:36;;;;;;;5.03;2.20;;;;;;;7.36;100.00;100158.41;4969418;28;20027;-63
2022/11/04 03:31:05;;;;;;;4.47;1.90;;;;;;;7.35;100.00;100160.09;4958951;28;20458;-63
2022/11/04 03:33:42;;;;;;;2.60;1.90;;;;;;;7.31;100.00;100160.81;4957920;28;20494;-63
2022/11/04 03:36:08;;;;;;;6.47;2.15;;;;;;;7.32;100.00;100162.56;4972335;28;20034;-63
2022/11/04 03:38:34;;;;;;;10.80;3.15;;;;;;;7.30;100.00;100159.06;4973869;28;20027;-63
2022/11/04 03:41:03;;;;;;;7.05;2.25;;;;;;;7.28;100.00;100165.88;4961118;28;20023;-63
2022/11/04 03:43:30;;;;;;;4.45;2.10;;;;;;;7.27;100.00;100164.09;4952294;28;20160;-63
2022/11/04 03:45:55;;;;;;;10.65;2.55;;;;;;;7.27;100.00;100170.13;4959800;28;20074;-63
2022/11/04 03:48:22;;;;;;;5.38;2.58;;;;;;;7.25;100.00;100166.63;4987903;28;20026;-63
2022/11/04 03:50:48;;;;;;;5.75;2.95;;;;;;;7.22;100.00;100169.09;4959721;28;20035;-63
2022/11/04 03:53:18;;;;;;;6.97;3.58;;;;;;;7.23;100.00;100168.28;4971521;28;20478;-63
2022/11/04 03:56:02;;;;;;;7.03;3.47;;;;;;;7.23;100.00;100167.41;4965380;28;20038;-64
2022/11/04 03:58:33;;;;;;;6.72;3.50;;;;;;;7.19;100.00;100169.88;4951678;28;20411;-63
2022/11/04 04:01:29;;;;;;;9.85;4.05;;;;;;;7.18;100.00;100169.81;4978067;28;20073;-64
2022/11/04 04:04:00;;;;;;;8.02;4.75;;;;;;;7.15;100.00;100165.44;4973647;28;20049;-63
2022/11/04 04:06:33;;;;;;;7.65;4.45;;;;;;;7.13;100.00;100161.03;4980702;28;20054;-63
2022/11/04 04:09:12;;;;;;;12.18;5.00;;;;;;;7.13;100.00;100164.50;4987262;28;20019;-63
2022/11/04 04:11:49;;;;;;;6.78;4.82;;;;;;;7.09;100.00;100154.91;4970171;28;20030;-63
2022/11/04 04:14:38;;;;;;;11.10;5.78;;;;;;;7.08;100.00;100169.50;4956565;28;20027;-63
2022/11/04 04:17:11;;;;;;;9.82;5.60;;;;;;;7.07;100.00;100177.16;4964991;28;20081;-63
2022/11/04 04:19:36;;;;;;;8.50;5.65;;;;;;;7.06;100.00;100175.41;4985211;28;20018;-63
2022/11/04 04:22:12;;;;;;;11.25;5.97;;;;;;;7.03;100.00;100185.63;4977177;28;20084;-63
2022/11/04 04:27:32;;;;;;;11.25;6.07;;;;;;;6.95;100.00;100182.75;4963618;28;20078;-63
2022/11/04 04:30:05;;;;;;;10.35;5.55;;;;;;;6.91;100.00;100186.03;4980473;28;20022;-63
2022/11/04 04:32:36;;;;;;;12.07;6.88;;;;;;;6.88;100.00;100191.97;4970557;28;20038;-64
2022/11/04 04:37:46;;;;;;;11.65;6.47;;;;;;;6.83;100.00;100204.69;4979753;28;20038;-63
2022/11/04 04:45:51;;;;;;;7.20;4.88;;;;;;;6.67;100.00;100197.19;4966685;28;20084;-63
2022/11/04 04:48:17;;;;;;;6.53;5.30;;;;;;;6.62;100.00;100207.28;4983132;28;20027;-63
2022/11/04 04:50:55;;;;;;;8.20;5.35;;;;;;;6.57;100.00;100207.13;4959705;28;20065;-63
2022/11/04 04:53:21;;;;;;;12.05;6.07;;;;;;;6.53;100.00;100205.25;4969630;28;20042;-63
2022/11/04 04:55:46;;;;;;;10.10;6.03;;;;;;;6.48;100.00;100206.78;4970296;28;20449;-63
2022/11/04 04:58:12;;;;;;;8.75;5.43;;;;;;;6.45;100.00;100214.38;4956272;28;20039;-64
2022/11/04 05:00:37;;;;;;;13.93;6.38;;;;;;;6.40;100.00;100214.22;4983713;28;20474;-63
2022/11/04 05:03:02;;;;;;;9.43;5.22;;;;;;;6.36;100.00;100207.19;4980208;28;20054;-63
2022/11/04 05:05:27;;;;;;;13.50;5.88;;;;;;;6.34;100.00;100208.81;4989051;28;20503;-64
2022/11/04 05:07:53;;;;;;;6.93;4.60;;;;;;;6.33;100.00;100214.78;4973468;28;20038;-64
2022/11/04 05:10:18;;;;;;;8.45;5.15;;;;;;;6.31;100.00;100211.28;4964844;28;20045;-63
2022/11/04 05:15:28;;;;;;;12.05;5.80;;;;;;;6.30;100.00;100209.50;4969942;28;20471;-63
2022/11/04 05:17:55;;;;;;;9.25;5.38;;;;;;;6.31;100.00;100213.84;4983790;28;20030;-63
2022/11/04 05:20:21;;;;;;;9.32;5.82;;;;;;;6.30;100.00;100222.38;4964297;28;20098;-63
2022/11/04 05:22:46;;;;;;;9.95;5.47;;;;;;;6.30;100.00;100222.38;4954932;28;20041;-63
2022/11/04 05:25:12;;;;;;;10.85;5.80;;;;;;;6.29;100.00;100229.22;4970597;28;20035;-64
2022/11/04 05:27:37;;;;;;;8.10;5.10;;;;;;;6.31;100.00;100230.19;4971736;28;20073;-63
2022/11/04 05:30:03;;;;;;;8.68;5.25;;;;;;;6.31;100.00;100234.44;4963335;28;20104;-63
2022/11/04 05:32:30;;;;;;;6.95;4.45;;;;;;;6.33;100.00;100232.81;4970581;28;20051;-63
2022/11/04 05:34:55;;;;;;;6.85;4.65;;;;;;;6.33;100.00;100238.81;4978271;28;20105;-63
2022/11/04 05:37:20;;;;;;;7.85;5.40;;;;;;;6.35;100.00;100241.47;4950184;28;20121;-63
2022/11/04 05:39:45;;;;;;;8.20;5.13;;;;;;;6.38;100.00;100240.69;4961802;28;20030;-63
2022/11/04 05:42:11;;;;;;;7.18;3.95;;;;;;;6.41;100.00;100240.81;4979439;28;20534;-63
2022/11/04 05:44:36;;;;;;;6.78;5.10;;;;;;;6.43;100.00;100240.06;4959842;28;20097;-63
2022/11/04 05:47:01;;;;;;;10.52;4.60;;;;;;;6.45;100.00;100251.31;4968718;28;20053;-63
2022/11/04 05:49:26;;;;;;;9.32;4.55;;;;;;;6.45;100.00;100248.72;4957670;28;20502;-63
2022/11/04 05:51:52;;;;;;;9.23;4.70;;;;;;;6.46;100.00;100249.59;4951789;28;20031;-63
2022/11/04 05:54:17;;;;;;;9.85;4.43;;;;;;;6.47;100.00;100253.94;4958168;28;20023;-63
2022/11/04 05:56:42;;;;;;;6.03;4.55;;;;;;;6.47;100.00;100251.38;4968657;28;20413;-63
2022/11/04 05:59:07;;;;;;;9.38;4.45;;;;;;;6.48;100.00;100261.72;4968879;28;20023;-63
2022/11/04 06:01:35;;;;;;;7.85;4.80;;;;;;;6.49;100.00;100266.03;4958654;28;20033;-63
2022/11/04 06:04:02;;;;;;;7.88;4.50;;;;;;;6.49;100.00;100275.47;4949886;28;20368;-63
2022/11/04 06:06:31;;;;;;;12.45;5.47;;;;;;;6.48;100.00;100274.59;4959004;28;20031;-63
2022/11/04 06:08:57;;;;;;;9.20;6.13;;;;;;;6.48;100.00;100273.69;4968609;28;20034;-63
2022/11/04 06:11:24;;;;;;;9.65;5.38;;;;;;;6.46;100.00;100271.06;4967717;28;20100;-63
2022/11/04 06:13:50;;;;;;;8.95;5.03;;;;;;;6.46;100.00;100265.91;4957420;28;20031;-63
2022/11/04 06:16:15;;;;;;;8.57;4.22;;;;;;;6.43;100.00;100265.81;4965356;28;20055;-63
2022/11/04 06:18:41;;;;;;;10.27;5.53;;;;;;;6.41;100.00;100266.56;4954602;28;20086;-64
2022/11/04 06:21:24;;;;;;;9.32;4.65;;;;;;;6.39;100.00;100268.19;4960360;28;20498;-63
2022/11/04 06:23:50;;;;;;;9.63;5.05;;;;;;;6.37;100.00;100273.28;4970596;28;20041;-63
2022/11/04 06:26:15;;;;;;;7.65;5.15;;;;;;;6.35;100.00;100278.38;4965360;28;20027;-63
2022/11/04 06:28:41;;;;;;;8.88;6.30;;;;;;;6.34;100.00;100286.03;4970485;28;20038;-63
2022/11/04 06:31:08;;;;;;;10.25;7.85;;;;;;;6.32;100.00;100287.66;4961649;28;20094;-63
2022/11/04 06:33:34;;;;;;;14.93;9.55;;;;;;;6.29;100.00;100288.44;4972143;28;20159;-63
2022/11/04 06:36:01;;;;;;;10.13;7.00;;;;;;;6.27;100.00;100290.06;4972571;28;20574;-64
2022/11/04 06:38:29;;;;;;;11.82;6.65;;;;;;;6.25;100.00;100289.09;4972584;28;20471;-63
2022/11/04 06:40:57;;;;;;;9.85;6.18;;;;;;;6.24;100.00;100290.78;4968076;28;20054;-63
2022/11/04 06:43:23;;;;;;;8.50;5.30;;;;;;;6.22;100.00;100291.56;4969003;28;20035;-63
2022/11/04 06:46:03;;;;;;;9.57;5.22;;;;;;;6.19;100.00;100286.28;4968039;28;20105;-63
2022/11/04 06:48:29;;;;;;;6.70;4.97;;;;;;;6.17;100.00;100298.22;4962996;28;20039;-64
2022/11/04 06:50:59;;;;;;;7.07;4.47;;;;;;;6.16;100.00;100307.63;4970323;28;20030;-63
2022/11/04 06:53:25;;;;;;;7.13;3.83;;;;;;;6.13;100.00;100312.66;4970891;28;20043;-63
2022/11/04 06:55:52;;;;;;;7.22;4.70;;;;;;;6.10;100.00;100312.50;4968179;28;20118;-63
2022/11/04 06:58:17;;;;;;;5.93;4.22;;;;;;;6.08;100.00;100319.28;4952918;28;20404;-63
2022/11/04 07:00:42;;;;;;;7.72;4.47;;;;;;;6.06;100.00;100316.63;4954280;28;20150;-64
2022/11/04 07:03:09;;;;;;;5.38;4.50;;;;;;;6.05;100.00;100321.69;4958597;28;20019;-63
2022/11/04 07:05:34;;;;;;;6.78;3.75;;;;;;;6.04;100.00;100322.50;4949507;28;20041;-63
2022/11/04 07:08:00;;;;;;;7.00;4.47;;;;;;;6.03;100.00;100321.63;4956232;28;20031;-63
2022/11/04 07:10:25;;;;;;;9.13;5.30;;;;;;;6.03;100.00;100333.63;4952088;28;20043;-63
2022/11/04 07:12:51;;;;;;;6.47;4.63;;;;;;;6.05;100.00;100334.53;4955980;28;20023;-63
2022/11/04 07:15:17;;;;;;;6.20;4.93;;;;;;;6.10;100.00;100338.22;4953947;28;20065;-64
2022/11/04 07:17:44;;;;;;;10.48;4.95;;;;;;;6.13;100.00;100333.22;4972631;28;20414;-65
2022/11/04 07:20:12;;;;;;;7.60;4.90;;;;;;;6.18;100.00;100342.00;4956642;28;20556;-65
2022/11/04 07:22:37;;;;;;;8.95;5.22;;;;;;;6.22;100.00;100343.88;4951262;28;20073;-66
2022/11/04 07:25:03;;;;;;;10.00;4.75;;;;;;;6.26;100.00;100349.19;4971567;28;20034;-64
2022/11/04 07:27:29;;;;;;;6.60;4.47;;;;;;;6.30;100.00;100351.03;4948654;28;20638;-65
2022/11/04 07:29:54;;;;;;;8.38;3.78;;;;;;;6.33;100.00;100346.03;4955164;28;20105;-65
2022/11/04 07:32:19;;;;;;;7.70;4.35;;;;;;;6.36;100.00;100347.06;4965321;28;20027;-64
2022/11/04 07:34:44;;;;;;;9.80;4.68;;;;;;;6.40;100.00;100348.06;4966940;28;20023;-65
2022/11/04 07:37:10;;;;;;;10.02;4.28;;;;;;;6.43;100.00;100352.44;4958931;28;20027;-65
2022/11/04 07:39:36;;;;;;;11.60;4.18;;;;;;;6.45;100.00;100351.69;4967630;28;20492;-62
2022/11/04 07:42:01;;;;;;;6.90;4.18;;;;;;;6.49;100.00;100355.28;4957314;28;20536;-65
2022/11/04 07:44:26;;;;;;;7.40;4.45;;;;;;;6.51;100.00;100355.34;4968264;28;20039;-65
2022/11/04 07:46:52;;;;;;;9.00;4.90;;;;;;;6.55;100.00;100362.38;4967106;28;20058;-65
2022/11/04 07:49:17;;;;;;;9.13;5.05;;;;;;;6.59;100.00;100366.81;4957739;28;20050;-64
2022/11/04 07:51:42;;;;;;;9.73;5.47;;;;;;;6.62;100.00;100366.94;4976019;28;20049;-65
2022/11/04 07:54:08;;;;;;;10.27;5.20;;;;;;;6.66;100.00;100371.41;4964039;28;20067;-64
2022/11/04 07:56:34;;;;;;;11.95;6.25;;;;;;;6.70;100.00;100370.72;4962795;28;20041;-65
2022/11/04 07:58:59;;;;;;;12.05;6.85;;;;;;;6.73;100.00;100375.97;4960302;28;20455;-65
2022/11/04 08:01:25;;;;;;;9.77;6.35;;;;;;;6.75;100.00;100375.16;4979720;28;20030;-65
2022/11/04 08:03:51;;;;;;;9.40;6.45;;;;;;;6.75;100.00;100363.16;4957164;28;20029;-66
2022/11/04 08:06:18;;;;;;;8.57;5.97;;;;;;;6.77;100.00;100364.09;4970447;28;20042;-65
2022/11/04 08:08:44;;;;;;;15.35;6.30;;;;;;;6.82;100.00;100377.16;4971180;28;20038;-65
2022/11/04 08:11:12;;;;;;;11.57;7.18;;;;;;;6.87;100.00;100375.69;4971228;28;20061;-65
2022/11/04 08:13:39;;;;;;;10.73;6.85;;;;;;;6.96;100.00;100380.31;4963261;28;20259;-65
2022/11/04 08:16:12;;;;;;;10.63;6.60;;;;;;;7.05;100.00;100377.22;4981907;28;20495;-65
2022/11/04 08:18:37;;;;;;;13.85;6.40;;;;;;;7.16;100.00;100382.78;4990660;28;20041;-65
2022/11/04 08:21:04;;;;;;;10.23;6.00;;;;;;;7.22;100.00;100388.16;4963873;28;20279;-65
2022/11/04 08:23:30;;;;;;;10.52;5.95;;;;;;;7.30;100.00;100401.34;4989348;28;20031;-65
2022/11/04 08:25:55;;;;;;;10.50;6.20;;;;;;;7.36;100.00;100398.13;4990371;28;20463;-65
2022/11/04 08:28:22;;;;;;;12.48;5.53;;;;;;;7.41;100.00;100402.63;4958832;28;20031;-65
2022/11/04 08:30:55;;;;;;;8.20;5.72;;;;;;;7.45;100.00;100401.94;4971061;28;20035;-65
2022/11/04 08:33:20;;;;;;;10.32;5.68;;;;;;;7.54;100.00;100416.88;4967202;28;20574;-65
2022/11/04 08:35:46;;;;;;;13.68;6.25;;;;;;;7.64;100.00;100406.91;4962373;28;20115;-65
2022/11/04 08:38:11;;;;;;;9.55;5.82;;;;;;;7.79;100.00;100411.72;4966385;28;20027;-65
2022/11/04 08:40:37;;;;;;;8.85;5.82;;;;;;;7.97;100.00;100419.25;4971967;28;20049;-65
2022/11/04 08:43:02;;;;;;;13.30;5.53;;;;;;;8.10;100.00;100423.16;4968483;28;20134;-65
2022/11/04 08:45:27;;;;;;;8.63;5.35;;;;;;;8.24;100.00;100425.38;4968856;28;20584;-65
2022/11/04 08:47:53;;;;;;;5.50;5.00;;;;;;;8.32;100.00;100429.09;4970090;28;20435;-65
2022/11/04 08:50:19;;;;;;;9.38;5.88;;;;;;;8.37;100.00;100422.38;4981633;28;20040;-66
2022/11/04 08:52:44;;;;;;;9.25;5.75;;;;;;;8.45;100.00;100424.34;4979081;28;20033;-66
2022/11/04 08:55:10;;;;;;;11.27;6.35;;;;;;;8.49;100.00;100426.22;4972579;28;20018;-65
2022/11/04 08:57:35;;;;;;;11.65;5.70;;;;;;;8.52;100.00;100428.91;4980459;28;20030;-65
2022/11/04 09:00:01;;;;;;;10.73;5.80;;;;;;;8.55;100.00;100426.41;4977041;28;20471;-65
2022/11/04 09:02:26;;;;;;;13.70;5.47;;;;;;;8.57;100.00;100429.97;4982962;28;20049;-65
2022/11/04 09:04:51;;;;;;;9.93;5.38;;;;;;;8.58;100.00;100436.88;4978091;28;20137;-62
2022/11/04 09:07:17;;;;;;;10.45;5.25;;;;;;;8.56;100.00;100440.25;4981849;28;20026;-63
2022/11/04 09:09:42;;;;;;;11.13;6.18;;;;;;;8.55;100.00;100448.75;4979401;28;20041;-62
2022/11/04 09:12:09;;;;;;;11.85;7.32;;;;;;;8.58;100.00;100462.69;4978531;28;20031;-63
2022/11/04 09:14:34;;;;;;;9.05;5.70;;;;;;;8.60;100.00;100461.03;4953864;28;20039;-63
2022/11/04 09:17:00;;;;;;;10.07;5.95;;;;;;;8.65;100.00;100467.25;4949517;28;20031;-63
2022/11/04 09:19:25;;;;;;;11.60;5.70;;;;;;;8.69;100.00;100464.78;4961308;28;20035;-63
2022/11/04 09:21:50;;;;;;;9.93;5.47;;;;;;;8.72;100.00;100464.88;4963210;28;20479;-63
2022/11/04 09:24:16;;;;;;;12.00;6.15;;;;;;;8.76;100.00;100466.75;4958600;28;20031;-63
2022/11/04 09:26:43;;;;;;;9.68;5.47;;;;;;;8.78;100.00;100465.06;4969502;28;20030;-63
2022/11/04 09:29:09;;;;;;;9.30;5.50;;;;;;;8.79;100.00;100466.84;4955843;28;20069;-63
2022/11/04 09:31:35;;;;;;;9.07;5.85;;;;;;;8.81;100.00;100470.38;4959925;28;20026;-63
2022/11/04 09:34:00;;;;;;;11.25;6.10;;;;;;;8.85;100.00;100477.38;4971690;28;20034;-63
2022/11/04 09:36:27;;;;;;;9.80;6.25;;;;;;;8.88;100.00;100487.84;4960803;28;20522;-63
2022/11/04 09:38:53;;;;;;;12.90;6.72;;;;;;;8.88;100.00;100493.00;4957566;28;20031;-63
2022/11/04 09:41:30;;;;;;;8.40;5.90;;;;;;;8.92;100.00;100493.97;4948246;28;20545;-63
2022/11/04 09:44:26;;;;;;;11.40;5.85;;;;;;;8.99;100.00;100497.66;4955928;28;20030;-63
2022/11/04 09:46:55;;;;;;;9.02;4.60;;;;;;;9.05;100.00;100500.41;4954151;28;20046;-63
2022/11/04 09:49:21;;;;;;;8.02;5.13;;;;;;;9.13;100.00;100504.16;4949607;28;20162;-63
2022/11/04 09:51:48;;;;;;;10.70;4.18;;;;;;;9.17;100.00;100505.13;4951692;28;20031;-63
2022/11/04 09:54:26;;;;;;;10.00;4.95;;;;;;;9.23;100.00;100510.47;4956127;28;20042;-63
2022/11/04 09:56:55;;;;;;;12.32;4.88;;;;;;;9.31;100.00;100513.31;4951956;28;20479;-63
2022/11/04 09:59:30;;;;;;;7.15;3.75;;;;;;;9.39;100.00;100515.28;4953786;28;20034;-63
2022/11/04 10:02:13;;;;;;;10.68;4.47;;;;;;;9.44;100.00;100511.13;4970578;28;20066;-62
2022/11/04 10:05:02;;;;;;;12.75;4.18;;;;;;;9.51;100.00;100509.59;4964565;28;20037;-62
2022/11/04 10:07:40;;;;;;;9.30;4.00;;;;;;;9.57;100.00;100521.00;4958086;28;20041;-62
2022/11/04 10:10:20;;;;;;;11.82;4.53;;;;;;;9.63;100.00;100524.63;4954894;28;20086;-63
2022/11/04 10:13:01;;;;;;;9.10;4.60;;;;;;;9.68;100.00;100523.03;4958368;28;20170;-63
2022/11/04 10:15:46;;;;;;;11.40;4.88;;;;;;;9.74;100.00;100525.84;4968504;28;20456;-63
2022/11/04 10:18:25;;;;;;;9.45;4.78;;;;;;;9.80;100.00;100518.28;4965439;28;20462;-63
2022/11/04 10:21:10;;;;;;;12.38;4.50;;;;;;;9.87;100.00;100523.63;4967925;28;20508;-62
2022/11/04 10:23:44;;;;;;;10.00;5.03;;;;;;;9.94;100.00;100525.56;4954987;28;20031;-63
2022/11/04 10:26:23;;;;;;;11.20;5.15;;;;;;;9.99;100.00;100533.44;4959193;28;20057;-63
2022/11/04 10:28:55;;;;;;;8.23;4.60;;;;;;;10.04;100.00;100531.88;4952109;28;20019;-63
2022/11/04 10:31:23;;;;;;;12.88;5.22;;;;;;;10.07;100.00;100535.41;4968052;28;20023;-63
2022/11/04 10:33:53;;;;;;;8.40;3.88;;;;;;;10.12;100.00;100542.47;4981172;28;20422;-63
2022/11/04 10:36:20;;;;;;;10.98;4.50;;;;;;;10.17;100.00;100543.47;4968549;28;20035;-62
2022/11/04 10:38:49;;;;;;;11.13;4.43;;;;;;;10.22;100.00;100552.25;4969910;28;20422;-63
2022/11/04 10:41:23;;;;;;;7.35;4.32;;;;;;;10.26;100.00;100554.09;4950756;28;20061;-63
2022/11/04 10:43:56;;;;;;;11.63;5.43;;;;;;;10.29;100.00;100563.69;4956525;28;20026;-63
2022/11/04 10:47:07;;;;;;;13.35;6.38;;;;;;;10.35;100.00;100565.53;4961719;28;20161;-63
2022/11/04 10:50:10;;;;;;;13.50;5.93;;;;;;;10.38;100.00;100576.88;4956249;28;20562;-63
2022/11/04 10:52:36;;;;;;;11.30;5.10;;;;;;;10.42;100.00;100577.84;4973129;28;20077;-63
2022/11/04 10:55:10;;;;;;;14.13;6.70;;;;;;;10.44;100.00;100574.47;4979220;28;20367;-63
2022/11/04 10:57:35;;;;;;;11.65;6.15;;;;;;;10.52;100.00;100574.69;4961010;28;20143;-63
2022/11/04 11:00:04;;;;;;;10.50;6.72;;;;;;;10.60;100.00;100571.44;4953022;28;20501;-63
2022/11/04 11:02:35;;;;;;;10.80;6.32;;;;;;;10.69;100.00;100559.63;4954461;28;20027;-63
2022/11/04 11:05:18;;;;;;;13.20;6.93;;;;;;;10.79;100.00;100549.50;4949753;28;20031;-63
2022/11/04 11:07:45;;;;;;;14.40;7.25;;;;;;;10.87;100.00;100557.47;4949555;28;20035;-63
2022/11/04 11:10:22;;;;;;;12.45;7.82;;;;;;;10.94;100.00;100549.03;4971386;28;20030;-63
2022/11/04 11:13:22;;;;;;;12.00;7.35;;;;;;;10.97;100.00;100554.31;4960231;28;20038;-63
2022/11/04 11:15:48;;;;;;;10.93;8.15;;;;;;;10.98;100.00;100558.63;4958915;28;20283;-63
2022/11/04 11:18:15;;;;;;;12.13;8.20;;;;;;;11.00;100.00;100575.13;4951455;28;20432;-63
2022/11/04 11:20:46;;;;;;;9.50;7.03;;;;;;;10.99;100.00;100570.75;4951822;28;20023;-63
2022/11/04 11:23:31;;;;;;;;;;;;;;;11.05;100.00;100578.72;4966270;28;20077;-63
2022/11/04 11:25:56;;;;;;;11.30;7.72;;;;;;;11.10;100.00;100580.56;4955630;28;19914;-63
2022/11/04 11:28:24;;;;;;;15.32;7.60;;;;;;;11.17;100.00;100582.47;4978035;28;20037;-63
2022/11/04 11:30:59;;;;;;;15.10;7.78;;;;;;;11.29;100.00;100581.88;4977808;28;20027;-63
2022/11/04 11:33:31;;;;;;;11.75;7.82;;;;;;;11.44;100.00;100575.31;4949410;28;20501;-62
2022/11/04 11:35:59;;;;;;;12.75;7.32;;;;;;;11.63;100.00;100569.72;4968287;28;20027;-63
2022/11/04 11:38:31;;;;;;;10.20;7.43;;;;;;;11.85;100.00;100562.44;4969854;28;20446;-64
2022/11/04 11:41:30;;;;;;;9.25;7.95;;;;;;;12.10;100.00;100563.00;4954900;28;20070;-63
2022/11/04 11:44:15;;;;;;;9.95;6.70;;;;;;;12.28;100.00;100560.75;4956531;28;20480;-63
2022/11/04 11:46:41;;;;;;;14.77;7.43;;;;;;;12.44;100.00;100569.72;4958649;28;20323;-63
2022/11/04 11:49:23;;;;;;;9.55;6.88;;;;;;;12.46;100.00;100568.94;4954606;28;20071;-63
2022/11/04 11:51:49;;;;;;;8.60;6.47;;;;;;;12.42;100.00;100569.69;4957876;28;20027;-64
2022/11/04 11:54:21;;;;;;;6.63;5.70;;;;;;;12.35;100.00;100573.91;4969136;28;20042;-63
2022/11/04 11:56:53;;;;;;;10.45;5.72;;;;;;;12.35;100.00;100583.41;4988809;28;20026;-63
2022/11/04 11:59:43;;;;;;;11.85;7.15;;;;;;;12.34;100.00;100582.53;4961823;28;20038;-64
2022/11/04 12:02:45;;;;;;;8.30;6.53;;;;;;;12.35;100.00;100583.41;4981544;28;20399;-63
2022/11/04 12:05:12;;;;;;;11.80;6.18;;;;;;;12.37;100.00;100581.72;4957629;28;20033;-63